createdAt,value
2019-01-25T00:01:10.007Z,25.19
2019-01-25T00:03:56.320Z,25.07
2019-01-25T00:06:04.984Z,25.01
2019-01-25T00:08:47.058Z,24.91
2019-01-25T00:11:18.631Z,24.82
2019-01-25T00:13:26.343Z,24.74
2019-01-25T00:15:39.238Z,24.67
2019-01-25T00:20:35.606Z,24.36
2019-01-25T00:22:58.961Z,24.15
2019-01-25T00:25:07.334Z,24.12
2019-01-25T00:27:14.334Z,24.13
2019-01-25T00:29:21.643Z,24.13
2019-01-25T00:31:28.920Z,24.18
2019-01-25T00:33:35.748Z,24.18
2019-01-25T00:35:42.958Z,24.11
2019-01-25T00:37:49.859Z,24.14
2019-01-25T00:39:58.575Z,24.15
2019-01-25T00:42:05.467Z,24.04
2019-01-25T00:44:13.281Z,24.10
2019-01-25T00:46:20.160Z,24.08
2019-01-25T00:48:26.883Z,24.13
2019-01-25T00:50:34.022Z,24.03
2019-01-25T00:52:40.845Z,24.06
2019-01-25T00:54:47.561Z,24.09
2019-01-25T00:56:54.836Z,23.98
2019-01-25T00:59:02.319Z,23.86
2019-01-25T01:01:10.441Z,23.81
2019-01-25T01:03:17.896Z,23.77
2019-01-25T01:05:24.899Z,23.77
2019-01-25T01:07:32.268Z,23.89
2019-01-25T01:09:40.740Z,23.93
2019-01-25T01:11:48.608Z,23.97
2019-01-25T01:13:55.911Z,23.93
2019-01-25T01:16:03.370Z,23.98
2019-01-25T01:18:10.192Z,24.04
2019-01-25T01:20:18.903Z,23.85
2019-01-25T01:22:26.259Z,23.18
2019-01-25T01:24:33.062Z,22.17
2019-01-25T01:26:39.855Z,21.23
2019-01-25T01:28:47.384Z,20.23
2019-01-25T01:30:54.928Z,19.75
2019-01-25T01:33:02.180Z,19.61
2019-01-25T01:35:09.014Z,19.49
2019-01-25T01:37:15.860Z,19.92
2019-01-25T01:39:22.597Z,20.25
2019-01-25T01:41:29.694Z,20.25
2019-01-25T01:43:36.981Z,20.40
2019-01-25T01:46:30.571Z,20.74
2019-01-25T01:48:49.546Z,20.91
2019-01-25T01:51:47.132Z,21.07
2019-01-25T01:53:54.517Z,21.16
2019-01-25T01:56:01.676Z,21.30
2019-01-25T01:58:09.643Z,21.35
2019-01-25T02:00:23.215Z,21.38
2019-01-25T02:02:30.357Z,21.35
2019-01-25T02:04:37.147Z,21.47
2019-01-25T02:06:44.475Z,21.46
2019-01-25T02:08:51.615Z,21.41
2019-01-25T02:10:58.439Z,21.42
2019-01-25T02:13:05.781Z,21.54
2019-01-25T02:15:14.604Z,21.47
2019-01-25T02:17:22.086Z,21.48
2019-01-25T02:19:31.304Z,21.49
2019-01-25T02:21:38.309Z,21.65
2019-01-25T02:23:46.277Z,21.72
2019-01-25T02:25:53.122Z,21.98
2019-01-25T02:28:00.247Z,22.18
2019-01-25T02:30:08.767Z,22.33
2019-01-25T02:32:31.793Z,22.50
2019-01-25T02:34:46.450Z,22.58
2019-01-25T02:37:00.902Z,22.74
2019-01-25T02:39:15.867Z,22.77
2019-01-25T02:41:35.278Z,22.85
2019-01-25T02:43:43.234Z,22.97
2019-01-25T02:45:50.212Z,23.06
2019-01-25T02:47:57.663Z,23.14
2019-01-25T02:50:06.531Z,23.21
2019-01-25T02:52:13.282Z,23.22
2019-01-25T02:54:20.606Z,23.14
2019-01-25T02:56:28.411Z,23.04
2019-01-25T02:58:36.730Z,22.93
2019-01-25T03:00:43.521Z,22.84
2019-01-25T03:02:50.606Z,22.72
2019-01-25T03:04:57.339Z,22.60
2019-01-25T03:07:04.675Z,22.52
2019-01-25T03:09:13.757Z,22.58
2019-01-25T03:11:21.806Z,22.57
2019-01-25T03:13:28.815Z,22.70
2019-01-25T03:15:36.479Z,22.96
2019-01-25T03:17:44.087Z,23.06
2019-01-25T03:19:51.675Z,23.25
2019-01-25T03:21:58.643Z,23.40
2019-01-25T03:24:05.963Z,23.51
2019-01-25T03:26:13.023Z,23.54
2019-01-25T03:28:19.983Z,23.58
2019-01-25T03:30:27.884Z,23.64
2019-01-25T03:32:35.680Z,23.70
2019-01-25T03:34:43.461Z,23.75
2019-01-25T03:36:50.975Z,23.73
2019-01-25T03:38:58.023Z,23.74
2019-01-25T03:41:05.068Z,23.68
2019-01-25T03:43:12.020Z,23.48
2019-01-25T03:45:19.238Z,23.34
2019-01-25T03:47:26.207Z,23.26
2019-01-25T03:49:33.213Z,23.20
2019-01-25T03:51:40.194Z,23.11
2019-01-25T03:53:47.197Z,23.03
2019-01-25T03:55:54.171Z,22.95
2019-01-25T03:58:01.411Z,22.88
2019-01-25T04:00:10.742Z,22.96
2019-01-25T04:02:17.748Z,23.09
2019-01-25T04:04:25.688Z,23.20
2019-01-25T04:06:32.749Z,23.39
2019-01-25T04:08:39.778Z,23.52
2019-01-25T04:10:46.746Z,23.63
2019-01-25T04:12:54.212Z,23.74
2019-01-25T04:15:02.655Z,23.58
2019-01-25T04:17:10.147Z,23.51
2019-01-25T04:19:18.287Z,23.41
2019-01-25T04:21:25.818Z,23.35
2019-01-25T04:23:33.889Z,23.23
2019-01-25T04:25:41.552Z,23.12
2019-01-25T04:27:48.990Z,23.01
2019-01-25T04:29:57.549Z,22.92
2019-01-25T04:32:04.526Z,23.04
2019-01-25T04:34:11.546Z,23.14
2019-01-25T04:36:19.094Z,23.24
2019-01-25T04:38:26.591Z,23.29
2019-01-25T04:40:33.546Z,23.35
2019-01-25T04:42:42.162Z,23.41
2019-01-25T04:44:49.567Z,23.34
2019-01-25T04:46:57.651Z,23.43
2019-01-25T04:49:05.853Z,23.40
2019-01-25T04:51:12.824Z,23.35
2019-01-25T04:53:20.272Z,23.21
2019-01-25T04:55:29.820Z,23.06
2019-01-25T04:57:37.351Z,22.93
2019-01-25T04:59:44.901Z,22.86
2019-01-25T05:01:52.713Z,22.87
2019-01-25T05:03:59.663Z,22.84
2019-01-25T05:06:07.994Z,22.92
2019-01-25T05:08:21.223Z,22.96
2019-01-25T05:10:28.734Z,23.01
2019-01-25T05:12:35.702Z,23.12
2019-01-25T05:14:43.537Z,23.21
2019-01-25T05:16:51.719Z,23.27
2019-01-25T05:18:59.507Z,23.35
2019-01-25T05:21:06.986Z,23.37
2019-01-25T05:23:14.002Z,23.39
2019-01-25T05:25:26.424Z,23.14
2019-01-25T05:27:34.014Z,23.13
2019-01-25T05:29:54.001Z,23.09
2019-01-25T05:32:04.209Z,22.95
2019-01-25T05:34:11.220Z,22.86
2019-01-25T05:36:18.164Z,22.90
2019-01-25T05:38:25.775Z,22.98
2019-01-25T05:40:33.390Z,23.03
2019-01-25T05:42:40.369Z,23.06
2019-01-25T05:44:47.618Z,23.18
2019-01-25T05:46:54.600Z,23.26
2019-01-25T05:49:07.562Z,23.24
2019-01-25T05:51:15.172Z,23.17
2019-01-25T05:53:22.340Z,23.05
2019-01-25T05:55:29.910Z,22.92
2019-01-25T05:57:36.980Z,22.84
2019-01-25T05:59:44.776Z,22.79
2019-01-25T06:01:52.644Z,22.71
2019-01-25T06:04:00.495Z,22.68
2019-01-25T06:06:08.962Z,22.67
2019-01-25T06:08:33.045Z,22.73
2019-01-25T06:10:40.038Z,22.83
2019-01-25T06:12:50.434Z,22.92
2019-01-25T06:14:58.848Z,22.96
2019-01-25T06:17:07.220Z,23.05
2019-01-25T06:19:15.535Z,23.11
2019-01-25T06:21:23.340Z,23.18
2019-01-25T06:23:31.210Z,23.26
2019-01-25T06:25:39.952Z,23.24
2019-01-25T06:27:46.826Z,23.31
2019-01-25T06:29:53.515Z,23.27
2019-01-25T06:32:01.462Z,23.26
2019-01-25T06:34:09.324Z,23.15
2019-01-25T06:36:16.633Z,23.06
2019-01-25T06:38:23.513Z,22.96
2019-01-25T06:40:30.878Z,22.89
2019-01-25T06:42:38.152Z,22.85
2019-01-25T06:44:44.995Z,22.83
2019-01-25T06:46:51.902Z,22.90
2019-01-25T06:48:59.293Z,22.93
2019-01-25T06:51:06.685Z,22.94
2019-01-25T06:53:14.171Z,23.01
2019-01-25T06:55:21.183Z,23.09
2019-01-25T06:57:43.532Z,23.17
2019-01-25T06:59:50.812Z,23.07
2019-01-25T07:02:20.396Z,22.97
2019-01-25T07:04:27.190Z,22.91
2019-01-25T07:06:33.961Z,22.72
2019-01-25T07:08:40.695Z,22.59
2019-01-25T07:10:48.219Z,22.44
2019-01-25T07:12:55.009Z,22.43
2019-01-25T07:15:01.782Z,22.46
2019-01-25T07:17:08.695Z,22.48
2019-01-25T07:19:15.519Z,22.53
2019-01-25T07:21:22.725Z,22.64
2019-01-25T07:23:29.548Z,22.78
2019-01-25T07:25:36.337Z,22.89
2019-01-25T07:27:43.133Z,23.00
2019-01-25T07:29:49.993Z,23.11
2019-01-25T07:31:56.796Z,23.20
2019-01-25T07:34:03.540Z,23.25
2019-01-25T07:36:10.352Z,23.28
2019-01-25T07:38:17.509Z,23.28
2019-01-25T07:40:24.301Z,23.31
2019-01-25T07:42:31.089Z,23.28
2019-01-25T07:44:38.316Z,23.17
2019-01-25T07:46:45.621Z,23.08
2019-01-25T07:48:52.530Z,22.93
2019-01-25T07:50:59.901Z,22.82
2019-01-25T07:53:08.404Z,22.70
2019-01-25T07:55:15.880Z,22.54
2019-01-25T07:57:26.545Z,22.48
2019-01-25T07:59:33.377Z,22.54
2019-01-25T08:01:40.132Z,22.59
2019-01-25T08:03:47.459Z,22.62
2019-01-25T08:05:54.900Z,22.66
2019-01-25T08:08:02.249Z,22.75
2019-01-25T08:10:11.277Z,22.80
2019-01-25T08:12:18.626Z,22.87
2019-01-25T08:14:25.389Z,22.98
2019-01-25T08:16:32.264Z,23.03
2019-01-25T08:18:39.635Z,23.01
2019-01-25T08:20:46.443Z,23.07
2019-01-25T08:22:53.761Z,23.15
2019-01-25T08:25:01.322Z,23.15
2019-01-25T08:27:08.887Z,23.06
2019-01-25T08:29:16.029Z,22.95
2019-01-25T08:31:22.771Z,22.87
2019-01-25T08:33:30.121Z,22.58
2019-01-25T08:35:36.904Z,22.75
2019-01-25T08:37:43.692Z,22.62
2019-01-25T08:39:51.657Z,22.56
2019-01-25T08:41:58.464Z,22.52
2019-01-25T08:44:05.557Z,22.55
2019-01-25T08:46:12.500Z,22.65
2019-01-25T08:48:20.297Z,22.67
2019-01-25T08:50:28.072Z,22.72
2019-01-25T08:52:35.036Z,22.51
2019-01-25T08:54:41.932Z,22.85
2019-01-25T08:56:49.599Z,22.94
2019-01-25T08:58:56.370Z,23.00
2019-01-25T09:01:04.286Z,22.99
2019-01-25T09:03:11.042Z,23.09
2019-01-25T09:05:18.936Z,23.16
2019-01-25T09:07:26.874Z,23.18
2019-01-25T09:09:34.805Z,23.12
2019-01-25T09:11:41.620Z,23.04
2019-01-25T09:13:48.350Z,22.92
2019-01-25T09:15:55.130Z,22.75
2019-01-25T09:18:01.949Z,22.62
2019-01-25T09:20:14.467Z,22.55
2019-01-25T09:22:18.722Z,22.40
2019-01-25T09:24:25.501Z,22.42
2019-01-25T09:26:32.281Z,22.43
2019-01-25T09:28:40.730Z,22.45
2019-01-25T09:30:47.518Z,22.52
2019-01-25T09:32:54.606Z,22.63
2019-01-25T09:35:01.837Z,22.75
2019-01-25T09:37:08.630Z,22.88
2019-01-25T09:39:15.414Z,22.98
2019-01-25T09:41:22.194Z,23.02
2019-01-25T09:43:29.415Z,23.10
2019-01-25T09:45:36.170Z,23.13
2019-01-25T09:47:42.958Z,23.16
2019-01-25T09:49:49.748Z,23.15
2019-01-25T09:51:57.214Z,23.22
2019-01-25T09:54:03.995Z,23.20
2019-01-25T09:56:10.802Z,23.11
2019-01-25T09:58:19.379Z,23.02
2019-01-25T10:00:29.396Z,22.90
2019-01-25T10:02:36.571Z,22.77
2019-01-25T10:04:43.348Z,22.62
2019-01-25T10:06:51.670Z,22.57
2019-01-25T10:08:59.213Z,22.41
2019-01-25T10:11:06.583Z,22.43
2019-01-25T10:13:14.285Z,22.45
2019-01-25T10:15:23.975Z,22.51
2019-01-25T10:17:32.026Z,22.54
2019-01-25T10:19:39.043Z,22.67
2019-01-25T10:21:46.619Z,22.73
2019-01-25T10:23:53.403Z,22.78
2019-01-25T10:26:00.916Z,22.84
2019-01-25T10:28:07.785Z,22.91
2019-01-25T10:30:17.636Z,23.02
2019-01-25T10:32:25.530Z,23.06
2019-01-25T10:34:32.348Z,23.14
2019-01-25T10:36:39.689Z,23.24
2019-01-25T10:38:46.445Z,23.33
2019-01-25T10:40:53.711Z,23.35
2019-01-25T10:43:01.017Z,23.29
2019-01-25T10:45:10.125Z,23.15
2019-01-25T10:47:17.478Z,23.05
2019-01-25T10:49:24.244Z,22.98
2019-01-25T10:51:31.207Z,22.76
2019-01-25T10:53:38.376Z,22.69
2019-01-25T10:55:45.587Z,22.67
2019-01-25T10:57:52.539Z,22.68
2019-01-25T11:00:00.499Z,22.72
2019-01-25T11:02:07.930Z,22.81
2019-01-25T11:04:15.775Z,22.84
2019-01-25T11:06:22.566Z,22.91
2019-01-25T11:08:29.816Z,22.94
2019-01-25T11:10:36.556Z,23.03
2019-01-25T11:12:44.467Z,23.05
2019-01-25T11:14:51.784Z,23.09
2019-01-25T11:16:58.538Z,23.13
2019-01-25T11:19:05.860Z,23.16
2019-01-25T11:21:12.598Z,23.08
2019-01-25T11:23:19.699Z,23.20
2019-01-25T11:25:29.049Z,23.28
2019-01-25T11:27:36.522Z,23.24
2019-01-25T11:29:43.687Z,23.21
2019-01-25T11:31:51.014Z,23.12
2019-01-25T11:33:57.834Z,22.94
2019-01-25T11:36:04.814Z,22.86
2019-01-25T11:38:11.616Z,22.76
2019-01-25T11:40:21.601Z,22.72
2019-01-25T11:42:28.381Z,22.55
2019-01-25T11:44:35.174Z,22.43
2019-01-25T11:46:43.694Z,22.30
2019-01-25T11:48:50.468Z,22.20
2019-01-25T11:50:57.812Z,22.23
2019-01-25T11:53:04.605Z,22.27
2019-01-25T11:55:11.827Z,22.35
2019-01-25T11:57:20.824Z,22.42
2019-01-25T11:59:28.010Z,22.44
2019-01-25T12:01:34.874Z,22.53
2019-01-25T12:03:42.188Z,22.60
2019-01-25T12:05:48.978Z,22.64
2019-01-25T12:07:56.814Z,22.76
2019-01-25T12:10:03.608Z,22.86
2019-01-25T12:12:10.889Z,22.97
2019-01-25T12:14:17.676Z,23.05
2019-01-25T12:16:24.475Z,23.11
2019-01-25T12:18:31.360Z,23.17
2019-01-25T12:20:38.785Z,23.28
2019-01-25T12:22:45.720Z,23.29
2019-01-25T12:24:52.886Z,23.29
2019-01-25T12:26:59.631Z,23.33
2019-01-25T12:29:06.644Z,23.35
2019-01-25T12:31:13.381Z,23.42
2019-01-25T12:33:20.921Z,23.44
2019-01-25T12:35:28.531Z,23.38
2019-01-25T12:37:35.295Z,23.42
2019-01-25T12:39:42.637Z,23.47
2019-01-25T12:41:49.802Z,23.52
2019-01-25T12:43:56.583Z,23.46
2019-01-25T12:46:03.692Z,23.49
2019-01-25T12:48:10.516Z,23.53
2019-01-25T12:50:20.351Z,23.62
2019-01-25T12:52:27.686Z,23.69
2019-01-25T12:54:34.466Z,23.74
2019-01-25T12:56:41.620Z,23.79
2019-01-25T12:58:48.383Z,23.77
2019-01-25T13:00:55.233Z,23.83
2019-01-25T13:03:02.949Z,23.81
2019-01-25T13:05:11.562Z,23.79
2019-01-25T13:07:19.375Z,23.78
2019-01-25T13:09:27.552Z,23.85
2019-01-25T13:11:34.392Z,23.96
2019-01-25T13:13:41.233Z,23.96
2019-01-25T13:15:48.021Z,24.04
2019-01-25T13:17:54.759Z,24.11
2019-01-25T13:20:01.559Z,24.15
2019-01-25T13:22:08.311Z,24.21
2019-01-25T13:24:15.640Z,24.29
2019-01-25T13:26:22.438Z,24.26
2019-01-25T13:28:29.205Z,24.22
2019-01-25T13:30:36.219Z,24.17
2019-01-25T13:32:43.242Z,24.22
2019-01-25T13:34:50.609Z,24.20
2019-01-25T13:36:58.012Z,24.19
2019-01-25T13:39:06.751Z,24.12
2019-01-25T13:41:13.682Z,24.18
2019-01-25T13:43:21.116Z,24.22
2019-01-25T13:45:27.984Z,24.27
2019-01-25T13:47:34.752Z,24.34
2019-01-25T13:49:41.581Z,24.35
2019-01-25T13:51:48.897Z,24.52
2019-01-25T13:53:56.292Z,24.52
2019-01-25T13:56:03.114Z,24.55
2019-01-25T13:58:10.602Z,24.47
2019-01-25T14:00:23.157Z,24.51
2019-01-25T14:02:29.964Z,24.53
2019-01-25T14:04:37.607Z,24.59
2019-01-25T14:06:45.121Z,24.52
2019-01-25T14:08:51.897Z,24.54
2019-01-25T14:10:59.197Z,24.60
2019-01-25T14:13:06.588Z,24.63
2019-01-25T14:15:27.647Z,24.66
2019-01-25T14:17:34.429Z,24.59
2019-01-25T14:19:41.548Z,24.68
2019-01-25T14:21:48.907Z,24.64
2019-01-25T14:23:55.710Z,24.73
2019-01-25T14:26:03.120Z,24.71
2019-01-25T14:28:09.955Z,24.74
2019-01-25T14:30:24.819Z,24.81
2019-01-25T14:32:32.288Z,24.89
2019-01-25T14:34:39.679Z,24.93
2019-01-25T14:36:46.570Z,25.05
2019-01-25T14:38:53.428Z,25.10
2019-01-25T14:41:00.812Z,25.07
2019-01-25T14:43:07.552Z,25.03
2019-01-25T14:45:14.866Z,25.07
2019-01-25T14:47:22.942Z,25.08
2019-01-25T14:49:29.753Z,25.13
2019-01-25T14:51:36.764Z,25.20
2019-01-25T14:53:43.504Z,25.25
2019-01-25T14:55:50.345Z,25.31
2019-01-25T14:57:57.506Z,25.38
2019-01-25T15:00:04.525Z,25.44
2019-01-25T15:02:11.378Z,25.44
2019-01-25T15:04:18.215Z,25.52
2019-01-25T15:06:25.044Z,25.57
2019-01-25T15:08:31.803Z,25.59
2019-01-25T15:10:39.123Z,25.62
2019-01-25T15:12:46.162Z,25.73
2019-01-25T15:14:53.025Z,25.78
2019-01-25T15:16:59.853Z,25.83
2019-01-25T15:19:06.602Z,25.88
2019-01-25T15:21:13.388Z,25.97
2019-01-25T15:23:20.563Z,26.10
2019-01-25T15:25:27.517Z,26.19
2019-01-25T15:27:34.302Z,26.20
2019-01-25T15:29:41.077Z,26.24
2019-01-25T15:31:48.369Z,26.35
2019-01-25T15:33:55.596Z,26.34
2019-01-25T15:36:02.902Z,26.32
2019-01-25T15:38:09.956Z,26.42
2019-01-25T15:40:17.337Z,26.46
2019-01-25T15:42:24.177Z,26.44
2019-01-25T15:44:31.325Z,26.39
2019-01-25T15:46:38.680Z,26.26
2019-01-25T15:48:45.523Z,26.14
2019-01-25T15:50:52.254Z,26.09
2019-01-25T15:52:59.365Z,26.00
2019-01-25T15:55:06.677Z,25.96
2019-01-25T15:57:14.920Z,25.82
2019-01-25T15:59:21.817Z,25.86
2019-01-25T16:01:29.327Z,25.78
2019-01-25T16:03:37.199Z,25.73
2019-01-25T16:05:45.221Z,25.66
2019-01-25T16:07:52.478Z,25.63
2019-01-25T16:09:59.226Z,25.57
2019-01-25T16:12:06.058Z,25.53
2019-01-25T16:14:17.876Z,25.46
2019-01-25T16:16:21.635Z,25.46
2019-01-25T16:18:28.444Z,25.40
2019-01-25T16:20:35.212Z,25.31
2019-01-25T16:22:42.531Z,25.26
2019-01-25T16:24:49.383Z,25.21
2019-01-25T16:26:56.657Z,25.15
2019-01-25T16:29:03.426Z,25.05
2019-01-25T16:31:10.713Z,25.01
2019-01-25T16:33:17.474Z,25.01
2019-01-25T16:35:24.411Z,25.02
2019-01-25T16:37:32.582Z,24.94
2019-01-25T16:39:39.381Z,24.98
2019-01-25T16:41:46.762Z,24.97
2019-01-25T16:43:54.193Z,24.99
2019-01-25T16:46:01.119Z,24.95
2019-01-25T16:48:08.167Z,24.93
2019-01-25T16:50:15.126Z,24.86
2019-01-25T16:52:22.476Z,24.82
2019-01-25T16:54:29.915Z,24.93
2019-01-25T16:56:36.861Z,25.06
2019-01-25T16:58:44.284Z,24.97
2019-01-25T17:00:53.212Z,25.39
2019-01-25T17:03:00.767Z,25.51
2019-01-25T17:05:08.655Z,25.59
2019-01-25T17:07:16.303Z,25.68
2019-01-25T17:09:23.674Z,25.76
2019-01-25T17:11:30.453Z,25.76
2019-01-25T17:13:37.302Z,25.93
2019-01-25T17:15:44.049Z,25.94
2019-01-25T17:17:50.831Z,26.08
2019-01-25T17:19:58.317Z,26.03
2019-01-25T17:22:05.163Z,26.10
2019-01-25T17:24:11.945Z,26.15
2019-01-25T17:26:19.277Z,26.12
2019-01-25T17:28:26.149Z,26.17
2019-01-25T17:30:34.891Z,26.02
2019-01-25T17:32:41.734Z,26.12
2019-01-25T17:34:48.482Z,26.25
2019-01-25T17:36:55.306Z,26.29
2019-01-25T17:39:02.116Z,26.41
2019-01-25T17:41:09.154Z,26.40
2019-01-25T17:43:16.321Z,26.43
2019-01-25T17:45:25.239Z,26.44
2019-01-25T17:47:32.765Z,26.48
2019-01-25T17:49:40.223Z,26.49
2019-01-25T17:51:47.050Z,26.47
2019-01-25T17:53:54.544Z,26.50
2019-01-25T17:56:01.989Z,26.40
2019-01-25T17:58:08.869Z,26.32
2019-01-25T18:00:20.298Z,26.18
2019-01-25T18:02:27.584Z,26.15
2019-01-25T18:04:34.736Z,25.97
2019-01-25T18:06:42.145Z,25.86
2019-01-25T18:08:48.962Z,25.92
2019-01-25T18:10:56.107Z,25.97
2019-01-25T18:13:02.906Z,26.03
2019-01-25T18:15:10.199Z,25.99
2019-01-25T18:17:17.122Z,25.87
2019-01-25T18:19:23.890Z,25.88
2019-01-25T18:21:32.153Z,25.74
2019-01-25T18:23:39.475Z,25.67
2019-01-25T18:25:55.915Z,25.62
2019-01-25T18:28:04.231Z,25.62
2019-01-25T18:30:18.489Z,25.66
2019-01-25T18:32:25.346Z,25.73
2019-01-25T18:34:32.123Z,25.72
2019-01-25T18:36:39.764Z,25.66
2019-01-25T18:38:46.793Z,25.79
2019-01-25T18:40:55.051Z,25.87
2019-01-25T18:43:02.438Z,26.04
2019-01-25T18:45:09.935Z,26.06
2019-01-25T18:47:16.713Z,26.11
2019-01-25T18:49:24.953Z,26.19
2019-01-25T18:51:31.756Z,26.28
2019-01-25T18:53:41.125Z,26.31
2019-01-25T18:55:49.089Z,26.18
2019-01-25T18:57:56.069Z,26.05
2019-01-25T19:00:30.860Z,25.96
2019-01-25T19:02:31.014Z,25.83
2019-01-25T19:04:37.952Z,25.69
2019-01-25T19:06:45.512Z,25.61
2019-01-25T19:08:54.010Z,25.53
2019-01-25T19:11:01.489Z,25.50
2019-01-25T19:13:11.938Z,25.50
2019-01-25T19:15:25.116Z,25.51
2019-01-25T19:17:32.171Z,25.60
2019-01-25T19:19:47.739Z,25.64
2019-01-25T19:24:56.435Z,25.74
2019-01-25T19:27:03.490Z,25.79
2019-01-25T19:29:11.380Z,25.77
2019-01-25T19:31:18.793Z,25.84
2019-01-25T19:33:25.728Z,25.95
2019-01-25T19:35:32.603Z,25.98
2019-01-25T19:37:39.936Z,26.03
2019-01-25T19:39:47.332Z,26.09
2019-01-25T19:41:54.347Z,26.13
2019-01-25T19:44:01.371Z,26.04
2019-01-25T19:46:08.989Z,25.93
2019-01-25T19:48:16.570Z,25.77
2019-01-25T19:50:24.649Z,25.62
2019-01-25T19:52:32.045Z,25.25
2019-01-25T19:54:46.597Z,25.35
2019-01-25T19:56:54.998Z,25.28
2019-01-25T19:59:02.563Z,25.17
2019-01-25T20:01:09.619Z,25.13
2019-01-25T20:03:16.619Z,25.24
2019-01-25T20:05:24.065Z,25.32
2019-01-25T20:07:41.371Z,25.39
2019-01-25T20:09:48.504Z,25.43
2019-01-25T20:11:55.838Z,25.53
2019-01-25T20:14:03.309Z,25.60
2019-01-25T20:16:10.205Z,25.69
2019-01-25T20:18:17.801Z,25.80
2019-01-25T20:20:26.755Z,25.84
2019-01-25T20:22:33.641Z,25.89
2019-01-25T20:24:40.992Z,25.90
2019-01-25T20:26:48.324Z,25.99
2019-01-25T20:28:55.198Z,26.02
2019-01-25T20:31:01.992Z,26.02
2019-01-25T20:33:08.939Z,25.91
2019-01-25T20:35:18.209Z,25.77
2019-01-25T20:37:25.588Z,25.64
2019-01-25T20:39:40.681Z,25.48
2019-01-25T20:41:47.898Z,25.43
2019-01-25T20:43:55.905Z,25.29
2019-01-25T20:46:03.418Z,25.11
2019-01-25T20:48:10.781Z,25.18
2019-01-25T20:50:19.896Z,25.31
2019-01-25T20:52:26.862Z,25.31
2019-01-25T20:54:34.670Z,25.38
2019-01-25T20:56:41.683Z,25.48
2019-01-25T20:58:49.224Z,25.58
2019-01-25T21:00:57.663Z,25.65
2019-01-25T21:03:22.806Z,25.67
2019-01-25T21:05:30.494Z,25.74
2019-01-25T21:07:37.451Z,25.79
2019-01-25T21:09:44.383Z,25.82
2019-01-25T21:11:52.525Z,25.86
2019-01-25T21:14:01.808Z,25.76
2019-01-25T21:16:09.141Z,25.69
2019-01-25T21:18:16.191Z,25.58
2019-01-25T21:20:35.173Z,25.44
2019-01-25T21:22:41.880Z,25.22
2019-01-25T21:24:49.254Z,25.13
2019-01-25T21:26:56.082Z,25.00
2019-01-25T21:29:24.819Z,25.03
2019-01-25T21:31:32.125Z,25.06
2019-01-25T21:33:40.883Z,25.12
2019-01-25T21:35:49.234Z,25.17
2019-01-25T21:38:35.546Z,25.20
2019-01-25T21:40:41.726Z,25.23
2019-01-25T21:42:49.235Z,25.34
2019-01-25T21:44:57.452Z,25.41
2019-01-25T21:47:04.622Z,25.47
2019-01-25T21:49:12.483Z,25.51
2019-01-25T21:51:51.137Z,25.59
2019-01-25T21:53:57.567Z,25.58
2019-01-25T21:56:04.806Z,25.75
2019-01-25T21:58:12.350Z,25.85
2019-01-25T22:00:24.104Z,25.88
2019-01-25T22:02:31.574Z,25.94
2019-01-25T22:04:48.780Z,25.79
2019-01-25T22:09:28.039Z,25.52
2019-01-25T22:11:38.152Z,25.36
2019-01-25T22:13:44.599Z,25.36
2019-01-25T22:16:04.017Z,25.37
2019-01-25T22:18:39.982Z,25.40
2019-01-25T22:21:00.042Z,25.64
2019-01-25T22:23:07.412Z,25.68
2019-01-25T22:25:15.162Z,25.73
2019-01-25T22:27:38.989Z,25.82
2019-01-25T22:29:47.011Z,25.80
2019-01-25T22:31:54.439Z,25.93
2019-01-25T22:36:31.396Z,26.03
2019-01-25T22:38:38.295Z,26.09
2019-01-25T22:40:59.426Z,26.07
2019-01-25T22:43:17.999Z,26.11
2019-01-25T22:48:30.628Z,26.14
2019-01-25T22:50:52.415Z,26.04
2019-01-25T22:52:59.694Z,25.86
2019-01-25T22:55:07.023Z,25.35
2019-01-25T22:57:13.821Z,25.40
2019-01-25T22:59:21.248Z,25.34
2019-01-25T23:01:31.642Z,25.27
2019-01-25T23:03:48.713Z,25.16
2019-01-25T23:06:16.046Z,25.09
2019-01-25T23:08:22.951Z,25.22
2019-01-25T23:10:32.511Z,25.25
2019-01-25T23:12:39.467Z,25.35
2019-01-25T23:14:46.291Z,25.41
2019-01-25T23:16:53.026Z,25.48
2019-01-25T23:18:59.781Z,25.55
2019-01-25T23:21:08.136Z,25.65
2019-01-25T23:23:15.536Z,25.70
2019-01-25T23:25:22.827Z,25.74
2019-01-25T23:27:29.614Z,25.73
2019-01-25T23:29:37.584Z,25.83
2019-01-25T23:31:44.787Z,25.88
2019-01-25T23:33:51.597Z,25.94
2019-01-25T23:35:58.908Z,25.99
2019-01-25T23:38:06.736Z,25.94
2019-01-25T23:40:15.588Z,26.05
2019-01-25T23:42:23.100Z,26.05
2019-01-25T23:44:29.833Z,26.07
2019-01-25T23:46:37.139Z,26.09
2019-01-25T23:48:44.443Z,26.16
2019-01-25T23:50:51.709Z,26.20
2019-01-25T23:52:59.071Z,26.23
2019-01-25T23:55:06.213Z,26.20
2019-01-25T23:57:12.937Z,26.19
2019-01-25T23:59:20.137Z,26.13
